createdAt,value
2018-12-22T00:00:04.972Z,1011.94
2018-12-22T00:01:04.961Z,1011.98
2018-12-22T00:02:04.952Z,1011.94
2018-12-22T00:03:04.942Z,1011.99
2018-12-22T00:04:04.931Z,1012.07
2018-12-22T00:05:04.924Z,1012.12
2018-12-22T00:06:04.914Z,1012.17
2018-12-22T00:07:05.157Z,1012.13
2018-12-22T00:08:04.895Z,1012.19
2018-12-22T00:09:04.886Z,1012.18
2018-12-22T00:10:04.876Z,1012.25
2018-12-22T00:11:04.867Z,1012.3
2018-12-22T00:12:04.858Z,1012.32
2018-12-22T00:13:04.849Z,1012.36
2018-12-22T00:14:04.840Z,1012.39
2018-12-22T00:15:04.829Z,1012.37
2018-12-22T00:16:04.819Z,1012.41
2018-12-22T00:17:04.813Z,1012.48
2018-12-22T00:18:04.802Z,1012.46
2018-12-22T00:19:04.790Z,1012.46
2018-12-22T00:20:04.781Z,1012.53
2018-12-22T00:21:04.771Z,1012.52
2018-12-22T00:22:04.762Z,1012.5
2018-12-22T00:23:04.758Z,1012.62
2018-12-22T00:24:04.744Z,1012.51
2018-12-22T00:25:04.734Z,1012.52
2018-12-22T00:26:04.724Z,1012.59
2018-12-22T00:27:04.713Z,1012.55
2018-12-22T00:28:04.705Z,1012.57
2018-12-22T00:29:04.695Z,1012.7
2018-12-22T00:30:04.685Z,1012.7
2018-12-22T00:31:04.676Z,1012.7
2018-12-22T00:32:04.666Z,1012.72
2018-12-22T00:33:04.656Z,1012.71
2018-12-22T00:34:04.647Z,1012.7
2018-12-22T00:35:04.637Z,1012.76
2018-12-22T00:36:04.693Z,1012.71
2018-12-22T00:37:04.616Z,1012.67
2018-12-22T00:38:04.907Z,1012.68
2018-12-22T00:39:04.598Z,1012.74
2018-12-22T00:40:04.588Z,1012.81
2018-12-22T00:41:04.578Z,1012.87
2018-12-22T00:42:04.568Z,1012.85
2018-12-22T00:43:04.560Z,1012.87
2018-12-22T00:44:04.548Z,1012.89
2018-12-22T00:45:04.538Z,1012.96
2018-12-22T00:46:04.529Z,1012.94
2018-12-22T00:47:04.520Z,1012.98
2018-12-22T00:48:04.507Z,1012.99
2018-12-22T00:49:04.497Z,1012.93
2018-12-22T00:50:04.487Z,1012.94
2018-12-22T00:51:04.479Z,1012.94
2018-12-22T00:52:04.470Z,1012.86
2018-12-22T00:53:04.458Z,1012.88
2018-12-22T00:54:04.448Z,1012.86
2018-12-22T00:55:04.437Z,1012.93
2018-12-22T00:56:04.428Z,1012.95
2018-12-22T00:57:04.418Z,1012.97
2018-12-22T00:58:04.408Z,1012.95
2018-12-22T00:59:04.396Z,1013.01
2018-12-22T01:00:04.388Z,1013.04
2018-12-22T01:01:04.377Z,1013.09
2018-12-22T01:02:04.366Z,1013.12
2018-12-22T01:03:04.357Z,1013.08
2018-12-22T01:04:04.347Z,1013
2018-12-22T01:05:04.337Z,1013.12
2018-12-22T01:06:04.326Z,1013.29
2018-12-22T01:07:04.314Z,1013.33
2018-12-22T01:08:04.305Z,1013.24
2018-12-22T01:09:04.296Z,1013.28
2018-12-22T01:10:04.285Z,1013.31
2018-12-22T01:11:04.274Z,1013.32
2018-12-22T01:12:04.265Z,1013.35
2018-12-22T01:13:04.253Z,1013.38
2018-12-22T01:14:04.242Z,1013.38
2018-12-22T01:15:04.235Z,1013.4
2018-12-22T01:16:04.223Z,1013.35
2018-12-22T01:17:04.213Z,1013.43
2018-12-22T01:18:04.202Z,1013.49
2018-12-22T01:19:04.190Z,1013.45
2018-12-22T01:20:04.181Z,1013.42
2018-12-22T01:21:04.169Z,1013.43
2018-12-22T01:22:04.160Z,1013.44
2018-12-22T01:23:04.149Z,1013.47
2018-12-22T01:24:04.138Z,1013.39
2018-12-22T01:25:04.127Z,1013.41
2018-12-22T01:26:04.117Z,1013.37
2018-12-22T01:27:04.108Z,1013.42
2018-12-22T01:28:04.097Z,1013.43
2018-12-22T01:29:04.087Z,1013.34
2018-12-22T01:30:04.076Z,1013.43
2018-12-22T01:31:04.066Z,1013.36
2018-12-22T01:32:04.054Z,1013.37
2018-12-22T01:33:04.043Z,1013.37
2018-12-22T01:34:04.034Z,1013.37
2018-12-22T01:35:04.023Z,1013.36
2018-12-22T01:36:04.015Z,1013.41
2018-12-22T01:37:04.002Z,1013.36
2018-12-22T01:38:03.991Z,1013.38
2018-12-22T01:39:03.981Z,1013.3
2018-12-22T01:40:03.971Z,1013.35
2018-12-22T01:41:03.961Z,1013.3
2018-12-22T01:42:03.951Z,1013.28
2018-12-22T01:43:03.939Z,1013.33
2018-12-22T01:44:03.928Z,1013.35
2018-12-22T01:45:03.925Z,1013.33
2018-12-22T01:46:03.907Z,1013.32
2018-12-22T01:47:03.898Z,1013.32
2018-12-22T01:48:03.887Z,1013.41
2018-12-22T01:49:03.877Z,1013.49
2018-12-22T01:50:03.867Z,1013.46
2018-12-22T01:51:03.857Z,1013.55
2018-12-22T01:52:03.847Z,1013.61
2018-12-22T01:53:03.837Z,1013.6
2018-12-22T01:54:03.826Z,1013.61
2018-12-22T01:55:03.821Z,1013.65
2018-12-22T01:56:03.807Z,1013.61
2018-12-22T01:57:03.793Z,1013.64
2018-12-22T01:58:03.785Z,1013.59
2018-12-22T01:59:03.775Z,1013.65
2018-12-22T02:00:03.769Z,1013.68
2018-12-22T02:01:03.755Z,1013.65
2018-12-22T02:02:03.744Z,1013.64
2018-12-22T02:03:03.734Z,1013.55
2018-12-22T02:04:03.724Z,1013.62
2018-12-22T02:05:03.713Z,1013.52
2018-12-22T02:06:03.703Z,1013.61
2018-12-22T02:07:03.691Z,1013.67
2018-12-22T02:08:03.685Z,1013.66
2018-12-22T02:09:03.672Z,1013.74
2018-12-22T02:10:03.661Z,1013.76
2018-12-22T02:11:03.652Z,1013.71
2018-12-22T02:12:03.641Z,1013.78
2018-12-22T02:13:03.631Z,1013.81
2018-12-22T02:14:03.621Z,1013.87
2018-12-22T02:15:03.685Z,1013.9
2018-12-22T02:16:03.607Z,1014.02
2018-12-22T02:17:03.589Z,1014.08
2018-12-22T02:18:03.580Z,1014.08
2018-12-22T02:19:03.569Z,1014.11
2018-12-22T02:20:03.559Z,1014.09
2018-12-22T02:21:03.550Z,1014.11
2018-12-22T02:22:03.540Z,1014.17
2018-12-22T02:23:03.527Z,1014.17
2018-12-22T02:24:03.518Z,1014.17
2018-12-22T02:25:03.507Z,1014.14
2018-12-22T02:26:03.498Z,1014
2018-12-22T02:27:03.487Z,1014.08
2018-12-22T02:28:03.476Z,1014.16
2018-12-22T02:29:03.466Z,1014.21
2018-12-22T02:30:03.460Z,1014.05
2018-12-22T02:31:03.448Z,1014.09
2018-12-22T02:32:03.436Z,1014.19
2018-12-22T02:33:03.431Z,1014.13
2018-12-22T02:34:03.415Z,1014.13
2018-12-22T02:35:03.412Z,1014.22
2018-12-22T02:36:03.394Z,1014.41
2018-12-22T02:37:03.383Z,1014.34
2018-12-22T02:38:03.373Z,1014.4
2018-12-22T02:39:03.363Z,1014.42
2018-12-22T02:40:03.352Z,1014.29
2018-12-22T02:41:03.342Z,1014.37
2018-12-22T02:42:03.331Z,1014.43
2018-12-22T02:43:03.332Z,1014.42
2018-12-22T02:44:03.313Z,1014.44
2018-12-22T02:45:03.302Z,1014.51
2018-12-22T02:46:03.292Z,1014.47
2018-12-22T02:47:03.279Z,1014.58
2018-12-22T02:48:03.269Z,1014.57
2018-12-22T02:49:03.257Z,1014.56
2018-12-22T02:50:03.250Z,1014.75
2018-12-22T02:51:03.238Z,1014.74
2018-12-22T02:52:03.227Z,1014.69
2018-12-22T02:53:03.215Z,1014.73
2018-12-22T02:54:03.206Z,1014.7
2018-12-22T02:55:03.196Z,1014.78
2018-12-22T02:56:03.185Z,1014.8
2018-12-22T02:57:03.178Z,1014.77
2018-12-22T02:58:03.164Z,1014.82
2018-12-22T02:59:06.024Z,1014.7
2018-12-22T03:00:03.142Z,1014.75
2018-12-22T03:01:03.133Z,1014.74
2018-12-22T03:02:03.122Z,1014.9
2018-12-22T03:03:03.112Z,1014.72
2018-12-22T03:04:03.100Z,1014.84
2018-12-22T03:05:03.090Z,1014.81
2018-12-22T03:06:03.080Z,1014.91
2018-12-22T03:07:03.068Z,1014.81
2018-12-22T03:08:03.058Z,1014.91
2018-12-22T03:09:03.047Z,1014.95
2018-12-22T03:10:03.041Z,1014.99
2018-12-22T03:11:03.025Z,1015.01
2018-12-22T03:12:03.017Z,1014.98
2018-12-22T03:13:03.006Z,1015.03
2018-12-22T03:14:03.242Z,1014.91
2018-12-22T03:15:02.981Z,1014.91
2018-12-22T03:16:02.970Z,1014.98
2018-12-22T03:17:02.958Z,1014.85
2018-12-22T03:18:02.949Z,1014.86
2018-12-22T03:19:02.938Z,1014.83
2018-12-22T03:20:02.930Z,1014.82
2018-12-22T03:21:02.916Z,1014.87
2018-12-22T03:22:02.905Z,1014.91
2018-12-22T03:23:02.894Z,1014.95
2018-12-22T03:24:02.883Z,1014.94
2018-12-22T03:25:02.873Z,1014.9
2018-12-22T03:26:02.862Z,1014.87
2018-12-22T03:27:02.855Z,1015.03
2018-12-22T03:28:02.840Z,1015
2018-12-22T03:29:02.835Z,1015.09
2018-12-22T03:30:02.818Z,1014.9
2018-12-22T03:31:02.810Z,1015.08
2018-12-22T03:32:02.798Z,1014.94
2018-12-22T03:33:02.785Z,1015.01
2018-12-22T03:34:02.775Z,1015
2018-12-22T03:35:02.763Z,1014.94
2018-12-22T03:36:02.754Z,1014.99
2018-12-22T03:37:02.741Z,1014.98
2018-12-22T03:38:02.730Z,1015
2018-12-22T03:39:02.722Z,1014.98
2018-12-22T03:40:02.709Z,1014.99
2018-12-22T03:41:02.699Z,1014.9
2018-12-22T03:42:02.689Z,1014.96
2018-12-22T03:43:02.677Z,1014.83
2018-12-22T03:44:02.666Z,1014.94
2018-12-22T03:45:02.736Z,1014.94
2018-12-22T03:46:02.646Z,1014.95
2018-12-22T03:47:02.635Z,1014.92
2018-12-22T03:48:02.623Z,1014.88
2018-12-22T03:49:02.612Z,1014.9
2018-12-22T03:50:02.602Z,1014.96
2018-12-22T03:51:02.593Z,1014.92
2018-12-22T03:52:02.583Z,1014.93
2018-12-22T03:53:02.571Z,1015.04
2018-12-22T03:54:02.559Z,1014.97
2018-12-22T03:55:02.549Z,1014.93
2018-12-22T03:56:02.543Z,1014.95
2018-12-22T03:57:02.526Z,1015.02
2018-12-22T03:58:02.516Z,1014.93
2018-12-22T03:59:02.505Z,1014.99
2018-12-22T04:00:02.498Z,1014.97
2018-12-22T04:01:02.485Z,1014.95
2018-12-22T04:02:02.473Z,1015.03
2018-12-22T04:03:02.461Z,1014.92
2018-12-22T04:04:02.451Z,1014.98
2018-12-22T04:05:02.451Z,1015.15
2018-12-22T04:06:02.429Z,1015.11
2018-12-22T04:07:02.421Z,1015.16
2018-12-22T04:08:02.418Z,1015.27
2018-12-22T04:09:02.397Z,1015.16
2018-12-22T04:10:02.386Z,1015.2
2018-12-22T04:11:02.378Z,1015.06
2018-12-22T04:12:02.366Z,1015.15
2018-12-22T04:13:02.355Z,1015.26
2018-12-22T04:14:02.346Z,1015.3
2018-12-22T04:15:02.333Z,1015.3
2018-12-22T04:16:02.325Z,1015.16
2018-12-22T04:17:02.313Z,1015.2
2018-12-22T04:18:02.303Z,1015.24
2018-12-22T04:19:02.292Z,1015.23
2018-12-22T04:20:02.279Z,1015.32
2018-12-22T04:21:02.269Z,1015.23
2018-12-22T04:22:02.266Z,1015.26
2018-12-22T04:23:02.249Z,1015.3
2018-12-22T04:24:02.237Z,1015.35
2018-12-22T04:25:02.227Z,1015.36
2018-12-22T04:26:02.216Z,1015.29
2018-12-22T04:27:02.204Z,1015.35
2018-12-22T04:28:02.195Z,1015.28
2018-12-22T04:29:02.283Z,1015.33
2018-12-22T04:30:02.180Z,1015.38
2018-12-22T04:31:02.163Z,1015.28
2018-12-22T04:32:02.154Z,1015.35
2018-12-22T04:33:02.146Z,1015.36
2018-12-22T04:34:02.132Z,1015.39
2018-12-22T04:35:02.122Z,1015.38
2018-12-22T04:36:02.112Z,1015.28
2018-12-22T04:37:02.101Z,1015.29
2018-12-22T04:38:02.093Z,1015.41
2018-12-22T04:39:02.080Z,1015.36
2018-12-22T04:40:02.069Z,1015.37
2018-12-22T04:41:02.056Z,1015.42
2018-12-22T04:42:02.045Z,1015.33
2018-12-22T04:43:02.036Z,1015.41
2018-12-22T04:44:02.025Z,1015.4
2018-12-22T04:45:02.014Z,1015.37
2018-12-22T04:46:02.004Z,1015.25
2018-12-22T04:47:01.993Z,1015.39
2018-12-22T04:48:01.983Z,1015.44
2018-12-22T04:49:01.974Z,1015.39
2018-12-22T04:50:01.979Z,1015.4
2018-12-22T04:51:01.950Z,1015.46
2018-12-22T04:52:01.942Z,1015.45
2018-12-22T04:53:01.928Z,1015.51
2018-12-22T04:54:01.917Z,1015.51
2018-12-22T04:55:01.909Z,1015.46
2018-12-22T04:56:01.897Z,1015.48
2018-12-22T04:57:01.886Z,1015.43
2018-12-22T04:58:01.876Z,1015.46
2018-12-22T04:59:01.866Z,1015.5
2018-12-22T05:00:01.860Z,1015.53
2018-12-22T05:01:01.844Z,1015.47
2018-12-22T05:02:01.834Z,1015.47
2018-12-22T05:03:01.823Z,1015.56
2018-12-22T05:04:01.812Z,1015.55
2018-12-22T05:05:01.801Z,1015.56
2018-12-22T05:06:01.795Z,1015.63
2018-12-22T05:07:01.780Z,1015.6
2018-12-22T05:08:01.771Z,1015.67
2018-12-22T05:09:01.760Z,1015.59
2018-12-22T05:10:01.749Z,1015.6
2018-12-22T05:11:01.736Z,1015.65
2018-12-22T05:12:01.735Z,1015.6
2018-12-22T05:13:01.717Z,1015.68
2018-12-22T05:14:01.715Z,1015.62
2018-12-22T05:15:01.709Z,1015.65
2018-12-22T05:16:01.684Z,1015.59
2018-12-22T05:17:01.674Z,1015.64
2018-12-22T05:18:01.663Z,1015.67
2018-12-22T05:19:01.652Z,1015.66
2018-12-22T05:20:01.642Z,1015.64
2018-12-22T05:21:01.633Z,1015.66
2018-12-22T05:22:01.622Z,1015.72
2018-12-22T05:23:01.609Z,1015.68
2018-12-22T05:24:01.601Z,1015.66
2018-12-22T05:25:01.600Z,1015.67
2018-12-22T05:26:01.579Z,1015.74
2018-12-22T05:27:01.567Z,1015.73
2018-12-22T05:28:01.558Z,1015.61
2018-12-22T05:29:01.544Z,1015.69
2018-12-22T05:30:01.536Z,1015.69
2018-12-22T05:31:01.525Z,1015.73
2018-12-22T05:32:01.516Z,1015.73
2018-12-22T05:33:01.503Z,1015.69
2018-12-22T05:34:01.494Z,1015.7
2018-12-22T05:35:01.494Z,1015.65
2018-12-22T05:36:01.471Z,1015.67
2018-12-22T05:37:01.461Z,1015.76
2018-12-22T05:38:01.450Z,1015.7
2018-12-22T05:39:01.440Z,1015.74
2018-12-22T05:40:01.429Z,1015.75
2018-12-22T05:41:01.418Z,1015.74
2018-12-22T05:42:01.409Z,1015.69
2018-12-22T05:43:01.399Z,1015.69
2018-12-22T05:44:01.385Z,1015.74
2018-12-22T05:45:01.375Z,1015.7
2018-12-22T05:46:01.365Z,1015.71
2018-12-22T05:47:01.356Z,1015.73
2018-12-22T05:48:01.344Z,1015.8
2018-12-22T05:49:01.333Z,1015.75
2018-12-22T05:50:01.324Z,1015.78
2018-12-22T05:51:01.312Z,1015.76
2018-12-22T05:52:01.302Z,1015.82
2018-12-22T05:53:01.292Z,1015.85
2018-12-22T05:54:01.281Z,1015.83
2018-12-22T05:55:01.269Z,1015.79
2018-12-22T05:56:01.259Z,1015.88
2018-12-22T05:57:01.249Z,1015.78
2018-12-22T05:58:01.239Z,1015.83
2018-12-22T05:59:01.227Z,1015.85
2018-12-22T06:00:01.217Z,1015.75
2018-12-22T06:01:01.207Z,1015.83
2018-12-22T06:02:01.195Z,1015.85
2018-12-22T06:03:01.184Z,1015.9
2018-12-22T06:04:01.175Z,1015.86
2018-12-22T06:05:01.164Z,1015.89
2018-12-22T06:06:01.153Z,1015.88
2018-12-22T06:07:01.141Z,1015.91
2018-12-22T06:08:01.131Z,1015.96
2018-12-22T06:09:01.121Z,1015.9
2018-12-22T06:10:01.110Z,1015.93
2018-12-22T06:11:01.155Z,1015.9
2018-12-22T06:12:01.091Z,1015.99
2018-12-22T06:13:01.079Z,1015.98
2018-12-22T06:14:01.068Z,1016.03
2018-12-22T06:15:01.061Z,1016.04
2018-12-22T06:16:01.047Z,1016.07
2018-12-22T06:17:01.038Z,1016
2018-12-22T06:18:01.026Z,1016.09
2018-12-22T06:19:01.015Z,1016.06
2018-12-22T06:20:01.003Z,1016.05
2018-12-22T06:21:01.248Z,1015.99
2018-12-22T06:22:00.991Z,1015.93
2018-12-22T06:23:00.973Z,1015.9
2018-12-22T06:24:00.961Z,1015.91
2018-12-22T06:25:00.951Z,1015.88
2018-12-22T06:26:00.942Z,1015.97
2018-12-22T06:27:00.930Z,1015.98
2018-12-22T06:28:00.917Z,1016
2018-12-22T06:29:00.908Z,1016.02
2018-12-22T06:30:08.880Z,1016.05
2018-12-22T06:31:00.885Z,1016.07
2018-12-22T06:32:00.875Z,1016.1
2018-12-22T06:33:00.865Z,1016.11
2018-12-22T06:34:00.854Z,1016.12
2018-12-22T06:35:00.843Z,1016.12
2018-12-22T06:36:00.832Z,1016.1
2018-12-22T06:37:00.822Z,1016.06
2018-12-22T06:38:00.811Z,1016.09
2018-12-22T06:39:00.799Z,1016.17
2018-12-22T06:40:00.788Z,1016.16
2018-12-22T06:41:00.779Z,1016.11
2018-12-22T06:42:00.767Z,1016.16
2018-12-22T06:43:00.756Z,1016.12
2018-12-22T06:44:00.745Z,1016.17
2018-12-22T06:45:00.741Z,1016.14
2018-12-22T06:46:00.724Z,1016.22
2018-12-22T06:47:00.713Z,1016.25
2018-12-22T06:48:00.703Z,1016.25
2018-12-22T06:49:00.761Z,1016.27
2018-12-22T06:50:00.681Z,1016.24
2018-12-22T06:51:00.671Z,1016.21
2018-12-22T06:52:00.910Z,1016.26
2018-12-22T06:53:00.648Z,1016.25
2018-12-22T06:54:00.636Z,1016.3
2018-12-22T06:55:00.626Z,1016.29
2018-12-22T06:56:00.616Z,1016.28
2018-12-22T06:57:00.612Z,1016.25
2018-12-22T06:58:00.593Z,1016.29
2018-12-22T06:59:00.583Z,1016.31
2018-12-22T07:00:00.573Z,1016.33
2018-12-22T07:01:00.562Z,1016.3
2018-12-22T07:02:00.551Z,1016.31
2018-12-22T07:03:00.540Z,1016.35
2018-12-22T07:04:00.528Z,1016.34
2018-12-22T07:05:02.090Z,1016.35
2018-12-22T07:06:00.509Z,1016.38
2018-12-22T07:07:00.500Z,1016.37
2018-12-22T07:08:00.486Z,1016.4
2018-12-22T07:09:00.474Z,1016.47
2018-12-22T07:10:00.563Z,1016.43
2018-12-22T07:11:00.454Z,1016.42
2018-12-22T07:12:00.443Z,1016.46
2018-12-22T07:13:00.732Z,1016.45
2018-12-22T07:14:00.421Z,1016.5
2018-12-22T07:15:00.410Z,1016.53
2018-12-22T07:16:00.399Z,1016.52
2018-12-22T07:17:00.389Z,1016.52
2018-12-22T07:18:00.377Z,1016.48
2018-12-22T07:19:00.366Z,1016.47
2018-12-22T07:20:00.356Z,1016.4
2018-12-22T07:21:00.345Z,1016.56
2018-12-22T07:22:00.335Z,1016.51
2018-12-22T07:23:00.322Z,1016.45
2018-12-22T07:24:00.313Z,1016.53
2018-12-22T07:25:00.309Z,1016.49
2018-12-22T07:26:00.290Z,1016.46
2018-12-22T07:27:00.280Z,1016.48
2018-12-22T07:28:00.272Z,1016.51
2018-12-22T07:29:00.259Z,1016.49
2018-12-22T07:30:00.247Z,1016.54
2018-12-22T07:31:00.237Z,1016.56
2018-12-22T07:32:00.226Z,1016.58
2018-12-22T07:33:00.216Z,1016.55
2018-12-22T07:34:00.204Z,1016.6
2018-12-22T07:35:00.297Z,1016.66
2018-12-22T07:36:00.182Z,1016.71
2018-12-22T07:37:00.172Z,1016.71
2018-12-22T07:38:00.160Z,1016.74
2018-12-22T07:39:00.151Z,1016.77
2018-12-22T07:40:00.301Z,1016.85
2018-12-22T07:41:00.129Z,1016.96
2018-12-22T07:42:00.117Z,1016.91
2018-12-22T07:43:00.106Z,1016.95
2018-12-22T07:44:00.096Z,1016.91
2018-12-22T07:45:00.086Z,1016.94
2018-12-22T07:46:00.077Z,1017
2018-12-22T07:47:00.064Z,1016.98
2018-12-22T07:48:00.055Z,1016.99
2018-12-22T07:49:00.042Z,1017.05
2018-12-22T07:50:00.030Z,1017.03
2018-12-22T07:51:00.021Z,1017.1
2018-12-22T07:52:00.009Z,1017.06
2018-12-22T07:52:59.998Z,1017.07
2018-12-22T07:53:59.988Z,1017.05
2018-12-22T07:54:59.976Z,1017.03
2018-12-22T07:55:59.965Z,1017.02
2018-12-22T07:56:59.954Z,1017.02
2018-12-22T07:57:59.944Z,1017.01
2018-12-22T07:58:59.933Z,1017.07
2018-12-22T07:59:59.920Z,1017.06
2018-12-22T08:00:59.913Z,1016.97
2018-12-22T08:01:59.902Z,1017
2018-12-22T08:02:59.890Z,1016.93
2018-12-22T08:03:59.878Z,1016.92
2018-12-22T08:04:59.867Z,1016.92
2018-12-22T08:05:59.855Z,1016.86
2018-12-22T08:06:59.844Z,1016.86
2018-12-22T08:07:59.833Z,1016.84
2018-12-22T08:08:59.824Z,1016.83
2018-12-22T08:09:59.811Z,1016.78
2018-12-22T08:10:59.801Z,1016.8
2018-12-22T08:11:59.794Z,1016.79
2018-12-22T08:12:59.778Z,1016.85
2018-12-22T08:13:59.767Z,1016.87
2018-12-22T08:14:59.757Z,1016.9
2018-12-22T08:15:59.747Z,1016.92
2018-12-22T08:16:59.735Z,1016.91
2018-12-22T08:17:59.724Z,1016.95
2018-12-22T08:18:59.713Z,1016.92
2018-12-22T08:19:59.701Z,1016.92
2018-12-22T08:20:59.691Z,1016.91
2018-12-22T08:21:59.681Z,1016.89
2018-12-22T08:22:59.670Z,1016.95
2018-12-22T08:23:59.659Z,1016.92
2018-12-22T08:24:59.647Z,1016.9
2018-12-22T08:25:59.637Z,1016.88
2018-12-22T08:26:59.627Z,1016.91
2018-12-22T08:27:59.616Z,1016.96
2018-12-22T08:28:59.605Z,1016.94
2018-12-22T08:29:59.595Z,1016.91
2018-12-22T08:30:59.584Z,1016.92
2018-12-22T08:31:59.572Z,1016.94
2018-12-22T08:32:59.562Z,1016.85
2018-12-22T08:33:59.551Z,1016.87
2018-12-22T08:34:59.541Z,1016.89
2018-12-22T08:35:59.530Z,1016.88
2018-12-22T08:36:59.519Z,1016.88
2018-12-22T08:37:59.510Z,1016.95
2018-12-22T08:38:59.498Z,1016.98
2018-12-22T08:39:59.487Z,1016.95
2018-12-22T08:40:59.525Z,1016.99
2018-12-22T08:41:59.468Z,1016.98
2018-12-22T08:42:59.454Z,1017.04
2018-12-22T08:43:59.444Z,1016.97
2018-12-22T08:44:59.434Z,1017.01
2018-12-22T08:45:59.424Z,1016.97
2018-12-22T08:46:59.413Z,1017
2018-12-22T08:47:59.403Z,1017
2018-12-22T08:48:59.392Z,1016.98
2018-12-22T08:49:59.380Z,1016.86
2018-12-22T08:50:59.374Z,1016.97
2018-12-22T08:51:59.364Z,1016.98
2018-12-22T08:52:59.351Z,1016.99
2018-12-22T08:53:59.340Z,1016.99
2018-12-22T08:54:59.329Z,1017.01
2018-12-22T08:55:59.320Z,1016.99
2018-12-22T08:56:59.308Z,1016.99
2018-12-22T08:57:59.299Z,1016.98
2018-12-22T08:58:59.295Z,1017.05
2018-12-22T08:59:59.278Z,1017.05
2018-12-22T09:00:59.269Z,1017
2018-12-22T09:01:59.257Z,1017.01
2018-12-22T09:02:59.247Z,1017.02
2018-12-22T09:03:59.235Z,1017
2018-12-22T09:04:59.228Z,1016.94
2018-12-22T09:05:59.215Z,1017.01
2018-12-22T09:06:59.205Z,1016.92
2018-12-22T09:07:59.196Z,1016.94
2018-12-22T09:08:59.185Z,1016.98
2018-12-22T09:09:59.175Z,1016.87
2018-12-22T09:10:59.165Z,1016.98
2018-12-22T09:11:59.154Z,1016.89
2018-12-22T09:12:59.144Z,1016.89
2018-12-22T09:13:59.133Z,1016.89
2018-12-22T09:14:59.124Z,1016.84
2018-12-22T09:15:59.113Z,1016.9
2018-12-22T09:16:59.104Z,1016.9
2018-12-22T09:17:59.095Z,1016.95
2018-12-22T09:18:59.084Z,1016.98
2018-12-22T09:19:59.074Z,1016.97
2018-12-22T09:20:59.065Z,1016.91
2018-12-22T09:21:59.056Z,1017.02
2018-12-22T09:22:59.043Z,1017.1
2018-12-22T09:23:59.033Z,1017.1
2018-12-22T09:24:59.024Z,1017.07
2018-12-22T09:25:59.017Z,1017
2018-12-22T09:26:59.004Z,1017.01
2018-12-22T09:27:58.994Z,1016.95
2018-12-22T09:28:58.984Z,1017.03
2018-12-22T09:29:58.976Z,1017.08
2018-12-22T09:31:00.834Z,1017.08
2018-12-22T09:31:58.955Z,1017.11
2018-12-22T09:32:58.945Z,1017.06
2018-12-22T09:33:58.936Z,1017.08
2018-12-22T09:34:58.925Z,1017.07
2018-12-22T09:35:58.914Z,1017.08
2018-12-22T09:36:58.906Z,1017.08
2018-12-22T09:37:58.903Z,1017.08
2018-12-22T09:38:58.885Z,1017.11
2018-12-22T09:39:58.875Z,1017.19
2018-12-22T09:40:58.863Z,1017.25
2018-12-22T09:41:58.854Z,1017.22
2018-12-22T09:42:58.851Z,1017.33
2018-12-22T09:43:58.836Z,1017.41
2018-12-22T09:44:58.824Z,1017.48
2018-12-22T09:45:58.814Z,1017.49
2018-12-22T09:46:58.805Z,1017.48
2018-12-22T09:47:58.804Z,1017.42
2018-12-22T09:48:58.782Z,1017.43
2018-12-22T09:49:58.833Z,1017.38
2018-12-22T09:50:58.764Z,1017.35
2018-12-22T09:51:58.753Z,1017.43
2018-12-22T09:53:01.775Z,1017.49
2018-12-22T09:53:58.779Z,1017.43
2018-12-22T09:54:58.724Z,1017.47
2018-12-22T09:55:58.713Z,1017.42
2018-12-22T09:56:58.703Z,1017.37
2018-12-22T09:57:58.693Z,1017.34
2018-12-22T09:58:58.933Z,1017.38
2018-12-22T09:59:58.671Z,1017.31
2018-12-22T10:00:58.662Z,1017.34
2018-12-22T10:01:58.653Z,1017.36
2018-12-22T10:02:58.641Z,1017.35
2018-12-22T10:03:58.631Z,1017.38
2018-12-22T10:04:58.622Z,1017.37
2018-12-22T10:05:58.611Z,1017.48
2018-12-22T10:06:58.601Z,1017.45
2018-12-22T10:07:58.591Z,1017.5
2018-12-22T10:08:58.581Z,1017.56
2018-12-22T10:09:58.572Z,1017.57
2018-12-22T10:10:58.559Z,1017.54
2018-12-22T10:11:58.550Z,1017.55
2018-12-22T10:12:58.539Z,1017.52
2018-12-22T10:13:58.529Z,1017.48
2018-12-22T10:14:58.520Z,1017.48
2018-12-22T10:15:58.510Z,1017.46
2018-12-22T10:16:58.501Z,1017.36
2018-12-22T10:17:58.493Z,1017.38
2018-12-22T10:18:58.479Z,1017.38
2018-12-22T10:19:58.469Z,1017.42
2018-12-22T10:20:58.460Z,1017.41
2018-12-22T10:21:58.449Z,1017.49
2018-12-22T10:22:58.437Z,1017.52
2018-12-22T10:23:58.429Z,1017.43
2018-12-22T10:24:58.417Z,1017.55
2018-12-22T10:25:58.411Z,1017.48
2018-12-22T10:26:58.399Z,1017.51
2018-12-22T10:27:58.389Z,1017.55
2018-12-22T10:28:58.378Z,1017.64
2018-12-22T10:29:58.619Z,1017.57
2018-12-22T10:30:58.357Z,1017.61
2018-12-22T10:31:58.349Z,1017.61
2018-12-22T10:32:58.338Z,1017.55
2018-12-22T10:33:58.328Z,1017.63
2018-12-22T10:34:58.317Z,1017.67
2018-12-22T10:35:58.307Z,1017.71
2018-12-22T10:36:58.297Z,1017.73
2018-12-22T10:37:58.287Z,1017.79
2018-12-22T10:38:58.279Z,1017.85
2018-12-22T10:39:58.268Z,1017.89
2018-12-22T10:40:58.259Z,1017.86
2018-12-22T10:41:58.249Z,1017.9
2018-12-22T10:42:58.239Z,1017.96
2018-12-22T10:43:58.232Z,1017.97
2018-12-22T10:44:58.218Z,1018.05
2018-12-22T10:45:58.209Z,1018.02
2018-12-22T10:46:58.198Z,1018.07
2018-12-22T10:47:58.189Z,1018.08
2018-12-22T10:48:58.179Z,1018.14
2018-12-22T10:49:58.169Z,1018.19
2018-12-22T10:50:58.158Z,1018.18
2018-12-22T10:51:58.148Z,1018.22
2018-12-22T10:52:58.137Z,1018.24
2018-12-22T10:53:58.127Z,1018.29
2018-12-22T10:54:58.119Z,1018.37
2018-12-22T10:55:58.109Z,1018.41
2018-12-22T10:56:58.099Z,1018.51
2018-12-22T10:57:59.944Z,1018.62
2018-12-22T10:58:58.078Z,1018.71
2018-12-22T10:59:58.068Z,1018.84
2018-12-22T11:00:58.060Z,1018.96
2018-12-22T11:01:58.048Z,1018.99
2018-12-22T11:02:58.036Z,1019.05
2018-12-22T11:03:58.026Z,1019.12
2018-12-22T11:04:58.015Z,1019.12
2018-12-22T11:05:58.005Z,1019.21
2018-12-22T11:06:57.996Z,1019.14
2018-12-22T11:07:57.986Z,1019.3
2018-12-22T11:08:57.976Z,1019.24
2018-12-22T11:09:57.964Z,1019.31
2018-12-22T11:10:57.954Z,1019.3
2018-12-22T11:11:57.944Z,1019.31
2018-12-22T11:12:58.034Z,1019.3
2018-12-22T11:13:57.922Z,1019.35
2018-12-22T11:14:57.910Z,1019.43
2018-12-22T11:15:57.900Z,1019.4
2018-12-22T11:16:57.890Z,1019.44
2018-12-22T11:17:57.878Z,1019.46
2018-12-22T11:18:57.869Z,1019.48
2018-12-22T11:19:57.857Z,1019.57
2018-12-22T11:20:57.847Z,1019.61
2018-12-22T11:21:57.837Z,1019.71
2018-12-22T11:22:57.824Z,1019.64
2018-12-22T11:23:57.815Z,1019.65
2018-12-22T11:24:57.804Z,1019.63
2018-12-22T11:25:57.793Z,1019.7
2018-12-22T11:26:57.782Z,1019.66
2018-12-22T11:27:57.769Z,1019.68
2018-12-22T11:28:57.759Z,1019.71
2018-12-22T11:29:57.749Z,1019.71
2018-12-22T11:30:57.738Z,1019.69
2018-12-22T11:31:57.727Z,1019.7
2018-12-22T11:32:57.717Z,1019.64
2018-12-22T11:33:57.708Z,1019.65
2018-12-22T11:34:57.693Z,1019.63
2018-12-22T11:35:57.682Z,1019.63
2018-12-22T11:36:57.674Z,1019.63
2018-12-22T11:37:57.661Z,1019.68
2018-12-22T11:38:57.649Z,1019.74
2018-12-22T11:39:57.641Z,1019.76
2018-12-22T11:40:57.628Z,1019.75
2018-12-22T11:41:57.618Z,1019.82
2018-12-22T11:42:57.607Z,1019.92
2018-12-22T11:43:57.597Z,1019.95
2018-12-22T11:44:57.587Z,1019.89
2018-12-22T11:45:57.575Z,1019.9
2018-12-22T11:46:57.565Z,1019.89
2018-12-22T11:47:57.553Z,1019.96
2018-12-22T11:48:57.542Z,1019.93
2018-12-22T11:49:57.534Z,1019.86
2018-12-22T11:50:57.521Z,1019.83
2018-12-22T11:51:57.510Z,1019.8
2018-12-22T11:52:57.499Z,1019.79
2018-12-22T11:53:57.488Z,1019.78
2018-12-22T11:54:57.478Z,1019.77
2018-12-22T11:55:57.468Z,1019.76
2018-12-22T11:56:57.459Z,1019.71
2018-12-22T11:57:57.446Z,1019.74
2018-12-22T11:58:57.439Z,1019.69
2018-12-22T11:59:57.425Z,1019.64
2018-12-22T12:00:57.413Z,1019.68
2018-12-22T12:01:57.405Z,1019.67
2018-12-22T12:02:57.394Z,1019.65
2018-12-22T12:03:57.381Z,1019.64
2018-12-22T12:04:57.371Z,1019.64
2018-12-22T12:05:57.361Z,1019.75
2018-12-22T12:06:57.352Z,1019.7
2018-12-22T12:07:57.341Z,1019.74
2018-12-22T12:08:57.331Z,1019.71